createdAt,value
2017-05-16T00:00:52.333Z,0
2017-05-16T00:01:52.261Z,0
2017-05-16T00:02:52.395Z,0
2017-05-16T00:03:52.257Z,0
2017-05-16T00:04:52.288Z,0
2017-05-16T00:05:52.343Z,0
2017-05-16T00:06:52.276Z,0
2017-05-16T00:07:52.283Z,0
2017-05-16T00:08:52.286Z,0
2017-05-16T00:09:52.299Z,0
2017-05-16T00:10:52.300Z,0
2017-05-16T00:11:52.282Z,0
2017-05-16T00:12:52.283Z,0
2017-05-16T00:13:52.286Z,0
2017-05-16T00:14:52.247Z,0
2017-05-16T00:15:52.303Z,0
2017-05-16T00:16:52.293Z,0
2017-05-16T00:17:52.293Z,0
2017-05-16T00:18:52.316Z,0
2017-05-16T00:19:52.259Z,0
2017-05-16T00:20:52.319Z,0
2017-05-16T00:21:52.269Z,0
2017-05-16T00:22:52.268Z,0
2017-05-16T00:23:52.355Z,0
2017-05-16T00:24:52.305Z,0
2017-05-16T00:25:52.266Z,0
2017-05-16T00:26:52.321Z,0
2017-05-16T00:27:52.306Z,0
2017-05-16T00:28:52.296Z,0
2017-05-16T00:29:52.289Z,0
2017-05-16T00:30:52.301Z,0
2017-05-16T00:31:52.291Z,0
2017-05-16T00:32:52.326Z,0
2017-05-16T00:33:52.320Z,0
2017-05-16T00:34:52.279Z,0
2017-05-16T00:35:52.301Z,0
2017-05-16T00:36:52.300Z,0
2017-05-16T00:37:52.303Z,0
2017-05-16T00:38:52.299Z,0
2017-05-16T00:39:52.313Z,0
2017-05-16T00:40:52.331Z,0
2017-05-16T00:41:52.298Z,0
2017-05-16T00:42:52.317Z,0
2017-05-16T00:43:52.304Z,0
2017-05-16T00:44:52.303Z,0
2017-05-16T00:45:52.316Z,0
2017-05-16T00:46:52.297Z,0
2017-05-16T00:47:52.301Z,0
2017-05-16T00:48:52.358Z,0
2017-05-16T00:49:52.309Z,0
2017-05-16T00:50:52.302Z,0
2017-05-16T00:51:52.299Z,0
2017-05-16T00:52:52.305Z,0
2017-05-16T00:53:52.307Z,0
2017-05-16T00:54:52.310Z,0
2017-05-16T00:55:52.322Z,0
2017-05-16T00:56:52.319Z,0
2017-05-16T00:57:52.287Z,0
2017-05-16T00:58:52.316Z,0
2017-05-16T00:59:52.308Z,0
2017-05-16T01:00:52.286Z,0
2017-05-16T01:01:52.319Z,0
2017-05-16T01:02:52.320Z,0
2017-05-16T01:03:52.322Z,0
2017-05-16T01:04:52.322Z,0
2017-05-16T01:05:52.308Z,0
2017-05-16T01:06:52.426Z,0
2017-05-16T01:07:52.318Z,0
2017-05-16T01:08:52.293Z,0
2017-05-16T01:09:52.297Z,0
2017-05-16T01:10:52.297Z,0
2017-05-16T01:11:52.345Z,0
2017-05-16T01:12:52.325Z,0
2017-05-16T01:13:52.368Z,0
2017-05-16T01:14:52.364Z,0
2017-05-16T01:15:52.356Z,0
2017-05-16T01:16:52.348Z,0
2017-05-16T01:17:52.294Z,0
2017-05-16T01:18:52.301Z,0
2017-05-16T01:19:52.350Z,0
2017-05-16T01:20:52.296Z,0
2017-05-16T01:21:52.327Z,0
2017-05-16T01:22:52.326Z,0
2017-05-16T01:23:52.374Z,0
2017-05-16T01:24:52.329Z,0
2017-05-16T01:25:52.374Z,0
2017-05-16T01:26:52.299Z,0
2017-05-16T01:27:52.302Z,0
2017-05-16T01:28:52.302Z,0
2017-05-16T01:29:52.304Z,0
2017-05-16T01:30:52.300Z,0
2017-05-16T01:31:52.305Z,0
2017-05-16T01:32:52.302Z,0
2017-05-16T01:33:52.304Z,0
2017-05-16T01:34:52.306Z,0
2017-05-16T01:35:52.304Z,0
2017-05-16T01:36:52.321Z,0
2017-05-16T01:37:52.347Z,0
2017-05-16T01:38:52.327Z,0
2017-05-16T01:39:52.303Z,0
2017-05-16T01:40:52.330Z,0
2017-05-16T01:41:52.354Z,0
2017-05-16T01:42:52.328Z,0
2017-05-16T01:43:52.326Z,0
2017-05-16T01:44:52.429Z,0
2017-05-16T01:45:52.322Z,0
2017-05-16T01:46:52.332Z,0
2017-05-16T01:47:52.383Z,0
2017-05-16T01:48:52.331Z,0
2017-05-16T01:49:52.331Z,0
2017-05-16T01:50:52.332Z,0
2017-05-16T01:51:52.331Z,0
2017-05-16T01:52:52.334Z,0
2017-05-16T01:53:52.336Z,0
2017-05-16T01:54:52.331Z,0
2017-05-16T01:55:52.373Z,0
2017-05-16T01:56:52.339Z,0
2017-05-16T01:57:52.306Z,0
2017-05-16T01:58:52.340Z,0
2017-05-16T01:59:52.334Z,0
2017-05-16T02:00:52.337Z,0
2017-05-16T02:01:52.438Z,0
2017-05-16T02:02:52.540Z,0
2017-05-16T02:03:52.340Z,0
2017-05-16T02:04:52.329Z,0
2017-05-16T02:05:52.341Z,0
2017-05-16T02:06:52.317Z,0
2017-05-16T02:07:52.342Z,0
2017-05-16T02:08:52.342Z,0
2017-05-16T02:09:52.357Z,0
2017-05-16T02:10:52.345Z,0
2017-05-16T02:11:52.356Z,0
2017-05-16T02:12:52.377Z,0
2017-05-16T02:13:52.348Z,0
2017-05-16T02:14:52.325Z,0
2017-05-16T02:15:52.358Z,0
2017-05-16T02:16:52.299Z,0
2017-05-16T02:17:52.329Z,0
2017-05-16T02:18:52.324Z,0
2017-05-16T02:19:52.332Z,0
2017-05-16T02:20:52.330Z,0
2017-05-16T02:21:52.334Z,0
2017-05-16T02:22:52.328Z,0
2017-05-16T02:23:52.328Z,0
2017-05-16T02:24:52.327Z,0
2017-05-16T02:25:52.332Z,0
2017-05-16T02:26:52.330Z,0
2017-05-16T02:27:52.361Z,0
2017-05-16T02:28:52.326Z,0
2017-05-16T02:29:52.364Z,0
2017-05-16T02:30:52.335Z,0
2017-05-16T02:31:52.347Z,0
2017-05-16T02:32:52.364Z,0
2017-05-16T02:33:52.364Z,0
2017-05-16T02:34:52.355Z,0
2017-05-16T02:35:52.357Z,0
2017-05-16T02:36:52.368Z,0
2017-05-16T02:37:52.369Z,0
2017-05-16T02:38:52.333Z,0
2017-05-16T02:39:52.353Z,0
2017-05-16T02:40:52.363Z,0
2017-05-16T02:41:52.372Z,0
2017-05-16T02:42:52.360Z,0
2017-05-16T02:43:52.363Z,0
2017-05-16T02:44:52.366Z,0
2017-05-16T02:45:52.375Z,0
2017-05-16T02:46:52.391Z,0
2017-05-16T02:47:52.365Z,0
2017-05-16T02:48:52.363Z,0
2017-05-16T02:49:52.365Z,0
2017-05-16T02:50:52.365Z,0
2017-05-16T02:51:52.364Z,0
2017-05-16T02:52:52.372Z,0
2017-05-16T02:53:52.324Z,0
2017-05-16T02:54:52.364Z,0
2017-05-16T02:55:52.365Z,0
2017-05-16T02:56:52.365Z,0
2017-05-16T02:57:52.384Z,0
2017-05-16T02:58:52.379Z,0
2017-05-16T02:59:52.371Z,0
2017-05-16T03:00:52.397Z,0
2017-05-16T03:01:52.381Z,0
2017-05-16T03:02:52.401Z,0
2017-05-16T03:03:52.364Z,0
2017-05-16T03:04:52.431Z,0
2017-05-16T03:05:52.487Z,0
2017-05-16T03:06:52.382Z,0
2017-05-16T03:07:52.349Z,0
2017-05-16T03:08:52.353Z,0
2017-05-16T03:09:52.356Z,0
2017-05-16T03:10:52.354Z,0
2017-05-16T03:11:52.353Z,0
2017-05-16T03:12:52.355Z,0
2017-05-16T03:13:52.349Z,0
2017-05-16T03:14:52.354Z,0
2017-05-16T03:15:52.361Z,0
2017-05-16T03:16:52.355Z,0
2017-05-16T03:17:52.378Z,0
2017-05-16T03:19:52.357Z,0
2017-05-16T03:20:52.382Z,0
2017-05-16T03:21:52.459Z,0
2017-05-16T03:22:52.412Z,0
2017-05-16T03:23:52.379Z,0
2017-05-16T03:24:52.376Z,0
2017-05-16T03:25:52.355Z,0
2017-05-16T03:26:52.468Z,0
2017-05-16T03:27:52.399Z,0
2017-05-16T03:28:52.352Z,0
2017-05-16T03:29:52.352Z,0
2017-05-16T03:30:52.354Z,0
2017-05-16T03:31:52.351Z,0
2017-05-16T03:32:52.353Z,0
2017-05-16T03:33:52.353Z,0
2017-05-16T03:34:52.358Z,0
2017-05-16T03:35:52.351Z,0
2017-05-16T03:36:52.358Z,0
2017-05-16T03:37:52.419Z,0
2017-05-16T03:38:52.421Z,0
2017-05-16T03:39:52.389Z,0
2017-05-16T03:40:52.395Z,0
2017-05-16T03:41:52.445Z,0
2017-05-16T03:42:52.399Z,0
2017-05-16T03:43:52.401Z,0
2017-05-16T03:44:52.423Z,0
2017-05-16T03:45:52.405Z,0
2017-05-16T03:46:52.399Z,0
2017-05-16T03:47:52.426Z,0
2017-05-16T03:48:52.366Z,0
2017-05-16T03:49:52.396Z,0
2017-05-16T03:50:52.449Z,0
2017-05-16T03:51:52.404Z,0
2017-05-16T03:52:52.449Z,0
2017-05-16T03:53:52.397Z,0
2017-05-16T03:54:52.374Z,0
2017-05-16T03:55:52.398Z,0
2017-05-16T03:56:52.446Z,0
2017-05-16T03:57:52.393Z,0
2017-05-16T03:58:52.398Z,0
2017-05-16T03:59:52.406Z,0
2017-05-16T04:00:52.401Z,0
2017-05-16T04:01:52.374Z,0
2017-05-16T04:02:52.411Z,0
2017-05-16T04:03:52.436Z,0
2017-05-16T04:04:52.376Z,0
2017-05-16T04:05:52.483Z,0
2017-05-16T04:06:52.407Z,0
2017-05-16T04:07:52.401Z,0
2017-05-16T04:08:52.404Z,0
2017-05-16T04:09:52.404Z,0
2017-05-16T04:10:52.405Z,0
2017-05-16T04:11:52.380Z,0
2017-05-16T04:12:52.401Z,0
2017-05-16T04:13:52.404Z,0
2017-05-16T04:14:52.406Z,0
2017-05-16T04:15:52.403Z,0
2017-05-16T04:16:52.384Z,0
2017-05-16T04:17:52.386Z,0
2017-05-16T04:18:52.384Z,18
2017-05-16T04:19:52.385Z,21
2017-05-16T04:20:52.379Z,25
2017-05-16T04:21:52.388Z,28
2017-05-16T04:22:52.383Z,31
2017-05-16T04:23:52.388Z,37
2017-05-16T04:24:52.386Z,42
2017-05-16T04:25:52.388Z,45
2017-05-16T04:26:52.387Z,47
2017-05-16T04:27:52.529Z,50
2017-05-16T04:28:52.427Z,52
2017-05-16T04:29:52.424Z,54
2017-05-16T04:30:52.430Z,54
2017-05-16T04:31:52.421Z,53
2017-05-16T04:32:52.446Z,52
2017-05-16T04:33:52.427Z,50
2017-05-16T04:34:52.416Z,48
2017-05-16T04:35:52.418Z,48
2017-05-16T04:36:52.466Z,47
2017-05-16T04:37:52.395Z,46
2017-05-16T04:38:52.394Z,44
2017-05-16T04:39:52.397Z,45
2017-05-16T04:40:52.393Z,43
2017-05-16T04:41:52.396Z,43
2017-05-16T04:42:52.394Z,44
2017-05-16T04:43:52.400Z,44
2017-05-16T04:44:52.397Z,45
2017-05-16T04:45:52.398Z,45
2017-05-16T04:46:52.396Z,46
2017-05-16T04:47:52.400Z,45
2017-05-16T04:48:52.400Z,45
2017-05-16T04:49:52.402Z,45
2017-05-16T04:50:52.402Z,46
2017-05-16T04:51:52.401Z,47
2017-05-16T04:52:52.406Z,49
2017-05-16T04:53:52.403Z,53
2017-05-16T04:54:52.405Z,58
2017-05-16T04:55:52.402Z,63
2017-05-16T04:56:52.402Z,69
2017-05-16T04:57:52.437Z,76
2017-05-16T04:58:52.430Z,79
2017-05-16T04:59:52.438Z,83
2017-05-16T05:00:52.440Z,84
2017-05-16T05:01:52.439Z,82
2017-05-16T05:02:52.429Z,79
2017-05-16T05:03:52.441Z,76
2017-05-16T05:04:52.437Z,73
2017-05-16T05:05:52.439Z,66
2017-05-16T05:06:52.438Z,66
2017-05-16T05:07:52.442Z,65
2017-05-16T05:08:52.438Z,66
2017-05-16T05:10:52.440Z,70
2017-05-16T05:11:52.439Z,75
2017-05-16T05:12:52.435Z,79
2017-05-16T05:13:52.449Z,83
2017-05-16T05:14:52.477Z,86
2017-05-16T05:15:52.447Z,89
2017-05-16T05:16:52.498Z,91
2017-05-16T05:17:52.447Z,93
2017-05-16T05:18:52.434Z,93
2017-05-16T05:19:52.437Z,92
2017-05-16T05:20:52.438Z,90
2017-05-16T05:21:52.376Z,88
2017-05-16T05:22:52.446Z,85
2017-05-16T05:23:52.425Z,85
2017-05-16T05:24:52.446Z,83
2017-05-16T05:25:52.440Z,83
2017-05-16T05:26:52.439Z,83
2017-05-16T05:27:52.453Z,84
2017-05-16T05:28:52.441Z,86
2017-05-16T05:29:52.441Z,89
2017-05-16T05:30:52.546Z,92
2017-05-16T05:31:52.446Z,95
2017-05-16T05:32:52.446Z,97
2017-05-16T05:33:52.443Z,99
2017-05-16T05:34:52.440Z,99
2017-05-16T05:35:52.435Z,104
2017-05-16T05:36:52.446Z,110
2017-05-16T05:37:52.443Z,115
2017-05-16T05:38:52.449Z,116
2017-05-16T05:39:52.447Z,120
2017-05-16T05:40:52.448Z,124
2017-05-16T05:41:52.492Z,106
2017-05-16T05:42:52.446Z,110
2017-05-16T05:43:52.442Z,125
2017-05-16T05:44:52.517Z,139
2017-05-16T05:45:52.449Z,139
2017-05-16T05:46:52.453Z,140
2017-05-16T05:47:52.451Z,143
2017-05-16T05:48:52.454Z,149
2017-05-16T05:49:52.558Z,151
2017-05-16T05:50:52.452Z,153
2017-05-16T05:51:52.451Z,155
2017-05-16T05:52:52.452Z,151
2017-05-16T05:53:52.438Z,154
2017-05-16T05:54:52.455Z,155
2017-05-16T05:55:52.456Z,156
2017-05-16T05:56:52.456Z,158
2017-05-16T05:57:52.459Z,161
2017-05-16T05:58:52.451Z,162
2017-05-16T05:59:52.431Z,167
2017-05-16T06:00:52.453Z,170
2017-05-16T06:01:52.488Z,173
2017-05-16T06:03:52.489Z,176
2017-05-16T06:04:52.470Z,178
2017-05-16T06:05:52.450Z,180
2017-05-16T06:06:52.485Z,182
2017-05-16T06:07:52.471Z,184
2017-05-16T06:08:52.453Z,184
2017-05-16T06:09:52.463Z,186
2017-05-16T06:10:52.427Z,187
2017-05-16T06:11:52.473Z,186
2017-05-16T06:12:52.495Z,187
2017-05-16T06:13:52.465Z,188
2017-05-16T06:14:52.492Z,192
2017-05-16T06:15:52.466Z,197
2017-05-16T06:16:52.460Z,203
2017-05-16T06:17:52.459Z,209
2017-05-16T06:18:52.473Z,216
2017-05-16T06:19:52.440Z,223
2017-05-16T06:20:52.461Z,229
2017-05-16T06:21:52.440Z,233
2017-05-16T06:22:52.441Z,236
2017-05-16T06:23:52.501Z,238
2017-05-16T06:24:52.473Z,243
2017-05-16T06:25:52.479Z,248
2017-05-16T06:26:52.502Z,251
2017-05-16T06:27:52.498Z,257
2017-05-16T06:28:52.505Z,260
2017-05-16T06:29:52.448Z,266
2017-05-16T06:30:52.443Z,274
2017-05-16T06:31:52.487Z,281
2017-05-16T06:32:52.524Z,288
2017-05-16T06:33:52.476Z,296
2017-05-16T06:34:52.478Z,304
2017-05-16T06:35:52.507Z,314
2017-05-16T06:36:52.485Z,326
2017-05-16T06:37:52.514Z,334
2017-05-16T06:38:52.456Z,338
2017-05-16T06:39:52.458Z,339
2017-05-16T06:40:52.459Z,334
2017-05-16T06:41:52.461Z,320
2017-05-16T06:42:52.458Z,321
2017-05-16T06:43:52.460Z,320
2017-05-16T06:44:52.462Z,312
2017-05-16T06:45:52.460Z,307
2017-05-16T06:46:52.464Z,296
2017-05-16T06:47:52.460Z,283
2017-05-16T06:48:52.471Z,279
2017-05-16T06:49:52.485Z,282
2017-05-16T06:50:52.491Z,277
2017-05-16T06:51:52.490Z,274
2017-05-16T06:52:52.455Z,271
2017-05-16T06:53:52.520Z,264
2017-05-16T06:54:52.496Z,264
2017-05-16T06:55:52.495Z,270
2017-05-16T06:56:52.522Z,273
2017-05-16T06:57:52.457Z,278
2017-05-16T06:58:52.477Z,278
2017-05-16T06:59:52.489Z,278
2017-05-16T07:00:52.487Z,285
2017-05-16T07:01:52.482Z,286
2017-05-16T07:02:52.484Z,285
2017-05-16T07:04:52.491Z,285
2017-05-16T07:05:52.487Z,283
2017-05-16T07:06:52.488Z,284
2017-05-16T07:07:52.493Z,292
2017-05-16T07:08:52.505Z,298
2017-05-16T07:09:52.496Z,307
2017-05-16T07:10:52.504Z,316
2017-05-16T07:11:52.473Z,319
2017-05-16T07:13:52.506Z,342
2017-05-16T07:14:52.506Z,354
2017-05-16T07:15:52.505Z,367
2017-05-16T07:16:52.512Z,383
2017-05-16T07:17:52.489Z,392
2017-05-16T07:18:52.548Z,409
2017-05-16T07:19:52.511Z,476
2017-05-16T07:20:52.504Z,469
2017-05-16T07:21:52.501Z,444
2017-05-16T07:22:52.496Z,451
2017-05-16T07:23:52.510Z,407
2017-05-16T07:24:52.547Z,398
2017-05-16T07:25:52.512Z,384
2017-05-16T07:26:52.512Z,355
2017-05-16T07:27:52.510Z,323
2017-05-16T07:28:52.499Z,297
2017-05-16T07:29:52.495Z,285
2017-05-16T07:30:52.498Z,282
2017-05-16T07:31:52.503Z,286
2017-05-16T07:32:52.498Z,292
2017-05-16T07:33:52.499Z,305
2017-05-16T07:34:52.503Z,322
2017-05-16T07:35:52.502Z,344
2017-05-16T07:36:52.461Z,368
2017-05-16T07:37:52.524Z,397
2017-05-16T07:38:52.549Z,423
2017-05-16T07:39:52.515Z,449
2017-05-16T07:40:52.508Z,472
2017-05-16T07:41:52.523Z,493
2017-05-16T07:42:52.613Z,502
2017-05-16T07:43:52.524Z,527
2017-05-16T07:44:52.506Z,535
2017-05-16T07:45:52.515Z,531
2017-05-16T07:46:52.511Z,517
2017-05-16T07:47:52.519Z,504
2017-05-16T07:48:52.511Z,486
2017-05-16T07:49:52.511Z,474
2017-05-16T07:50:52.515Z,464
2017-05-16T07:51:52.514Z,456
2017-05-16T07:52:52.518Z,454
2017-05-16T07:53:52.519Z,466
2017-05-16T07:54:52.521Z,472
2017-05-16T07:56:52.519Z,437
2017-05-16T07:57:52.518Z,433
2017-05-16T07:58:52.513Z,435
2017-05-16T07:59:52.508Z,437
2017-05-16T08:00:52.515Z,439
2017-05-16T08:01:52.620Z,441
2017-05-16T08:02:52.517Z,453
2017-05-16T08:03:52.487Z,461
2017-05-16T08:04:52.514Z,462
2017-05-16T08:05:52.511Z,468
2017-05-16T08:06:52.518Z,478
2017-05-16T08:07:52.520Z,490
2017-05-16T08:08:52.502Z,496
2017-05-16T08:09:52.498Z,505
2017-05-16T08:10:52.546Z,514
2017-05-16T08:11:52.501Z,517
2017-05-16T08:12:52.502Z,516
2017-05-16T08:13:52.502Z,502
2017-05-16T08:14:52.503Z,507
2017-05-16T08:15:52.505Z,507
2017-05-16T08:16:52.502Z,502
2017-05-16T08:17:52.505Z,500
2017-05-16T08:18:52.530Z,466
2017-05-16T08:19:52.537Z,444
2017-05-16T08:20:52.520Z,427
2017-05-16T08:21:52.523Z,408
2017-05-16T08:22:52.505Z,396
2017-05-16T08:23:52.535Z,386
2017-05-16T08:24:52.536Z,377
2017-05-16T08:25:52.542Z,368
2017-05-16T08:26:52.524Z,361
2017-05-16T08:27:52.586Z,356
2017-05-16T08:28:52.525Z,352
2017-05-16T08:29:52.509Z,348
2017-05-16T08:30:52.551Z,341
2017-05-16T08:31:52.545Z,340
2017-05-16T08:32:52.549Z,338
2017-05-16T08:33:52.547Z,337
2017-05-16T08:34:52.514Z,337
2017-05-16T08:35:52.549Z,339
2017-05-16T08:36:52.592Z,338
2017-05-16T08:37:52.571Z,347
2017-05-16T08:38:52.540Z,353
2017-05-16T08:39:52.532Z,359
2017-05-16T08:40:52.533Z,367
2017-05-16T08:41:52.786Z,374
2017-05-16T08:42:52.546Z,374
2017-05-16T08:43:52.531Z,387
2017-05-16T08:44:52.538Z,391
2017-05-16T08:45:52.534Z,395
2017-05-16T08:46:52.536Z,396
2017-05-16T08:47:52.541Z,392
2017-05-16T08:48:52.543Z,396
2017-05-16T08:49:52.542Z,409
2017-05-16T08:50:52.508Z,421
2017-05-16T08:51:52.544Z,437
2017-05-16T08:52:52.560Z,457
2017-05-16T08:53:52.545Z,473
2017-05-16T08:54:52.487Z,504
2017-05-16T08:55:52.549Z,548
2017-05-16T08:56:52.546Z,597
2017-05-16T08:57:52.569Z,647
2017-05-16T08:58:52.563Z,647
2017-05-16T08:59:52.546Z,650
2017-05-16T09:00:52.550Z,648
2017-05-16T09:01:52.545Z,626
2017-05-16T09:02:52.542Z,609
2017-05-16T09:03:52.545Z,592
2017-05-16T09:04:52.553Z,576
2017-05-16T09:06:52.549Z,519
2017-05-16T09:07:52.541Z,500
2017-05-16T09:08:52.552Z,492
2017-05-16T09:09:52.601Z,497
2017-05-16T09:10:52.528Z,511
2017-05-16T09:11:52.533Z,529
2017-05-16T09:12:52.532Z,548
2017-05-16T09:13:52.531Z,556
2017-05-16T09:14:52.531Z,583
2017-05-16T09:15:52.533Z,593
2017-05-16T09:16:52.537Z,631
2017-05-16T09:17:52.534Z,651
2017-05-16T09:18:52.535Z,647
2017-05-16T09:19:52.510Z,648
2017-05-16T09:20:52.497Z,657
2017-05-16T09:21:52.471Z,652
2017-05-16T09:22:52.469Z,647
2017-05-16T09:23:52.513Z,652
2017-05-16T09:24:52.509Z,657
2017-05-16T09:26:52.518Z,670
2017-05-16T09:27:52.474Z,673
2017-05-16T09:28:52.512Z,676
2017-05-16T09:29:52.555Z,697
2017-05-16T09:30:52.574Z,710
2017-05-16T09:31:52.580Z,734
2017-05-16T09:32:52.545Z,719
2017-05-16T09:33:52.681Z,764
2017-05-16T09:34:52.585Z,743
2017-05-16T09:35:52.594Z,746
2017-05-16T09:36:52.537Z,764
2017-05-16T09:37:52.577Z,784
2017-05-16T09:38:52.571Z,810
2017-05-16T09:39:52.571Z,798
2017-05-16T09:40:52.573Z,844
2017-05-16T09:41:52.583Z,704
2017-05-16T09:42:52.579Z,701
2017-05-16T09:43:52.603Z,649
2017-05-16T09:44:52.546Z,717
2017-05-16T09:45:52.548Z,684
2017-05-16T09:46:52.576Z,718
2017-05-16T09:47:52.584Z,770
2017-05-16T09:48:52.574Z,997
2017-05-16T09:49:52.583Z,933
2017-05-16T09:50:52.581Z,890
2017-05-16T09:51:52.585Z,1135
2017-05-16T09:52:52.590Z,1002
2017-05-16T09:53:52.570Z,939
2017-05-16T09:54:52.572Z,973
2017-05-16T09:55:52.589Z,852
2017-05-16T09:56:52.588Z,784
2017-05-16T09:57:52.606Z,685
2017-05-16T09:58:52.581Z,657
2017-05-16T09:59:52.556Z,636
2017-05-16T10:00:52.558Z,623
2017-05-16T10:01:52.558Z,611
2017-05-16T10:02:52.564Z,621
2017-05-16T10:03:52.558Z,612
2017-05-16T10:04:52.559Z,617
2017-05-16T10:05:52.560Z,622
2017-05-16T10:06:52.562Z,606
2017-05-16T10:07:52.561Z,590
2017-05-16T10:08:52.564Z,585
2017-05-16T10:09:52.584Z,580
2017-05-16T10:10:52.588Z,583
2017-05-16T10:11:52.598Z,590
2017-05-16T10:12:52.598Z,598
2017-05-16T10:13:52.597Z,605
2017-05-16T10:15:52.563Z,611
2017-05-16T10:16:52.598Z,611
2017-05-16T10:17:52.600Z,625
2017-05-16T10:18:52.620Z,635
2017-05-16T10:19:52.596Z,643
2017-05-16T10:20:52.590Z,631
2017-05-16T10:21:52.589Z,632
2017-05-16T10:22:52.590Z,616
2017-05-16T10:23:52.587Z,607
2017-05-16T10:24:52.588Z,610
2017-05-16T10:25:52.590Z,723
2017-05-16T10:26:52.587Z,604
2017-05-16T10:27:52.599Z,569
2017-05-16T10:28:52.595Z,565
2017-05-16T10:29:52.592Z,584
2017-05-16T10:30:52.594Z,555
2017-05-16T10:31:52.562Z,557
2017-05-16T10:32:52.595Z,563
2017-05-16T10:33:52.596Z,587
2017-05-16T10:34:52.647Z,645
2017-05-16T10:36:52.596Z,631
2017-05-16T10:37:52.601Z,668
2017-05-16T10:38:52.705Z,638
2017-05-16T10:39:52.610Z,740
2017-05-16T10:40:52.618Z,715
2017-05-16T10:41:52.609Z,747
2017-05-16T10:42:52.708Z,692
2017-05-16T10:43:52.615Z,654
2017-05-16T10:44:52.579Z,653
2017-05-16T10:45:52.607Z,671
2017-05-16T10:47:52.597Z,707
2017-05-16T10:48:52.723Z,767
2017-05-16T10:49:52.613Z,790
2017-05-16T10:50:52.581Z,751
2017-05-16T10:51:52.615Z,713
2017-05-16T10:52:52.614Z,696
2017-05-16T10:53:52.577Z,686
2017-05-16T10:54:52.614Z,678
2017-05-16T10:55:52.608Z,685
2017-05-16T10:56:52.604Z,679
2017-05-16T10:57:52.604Z,691
2017-05-16T10:58:52.606Z,702
2017-05-16T10:59:52.643Z,784
2017-05-16T11:00:52.615Z,925
2017-05-16T11:01:52.624Z,905
2017-05-16T11:02:52.642Z,961
2017-05-16T11:03:52.619Z,800
2017-05-16T11:04:52.622Z,786
2017-05-16T11:05:52.624Z,750
2017-05-16T11:06:52.614Z,715
2017-05-16T11:07:52.622Z,714
2017-05-16T11:08:52.617Z,734
2017-05-16T11:09:52.625Z,751
2017-05-16T11:10:52.628Z,717
2017-05-16T11:11:52.626Z,717
2017-05-16T11:12:52.632Z,740
2017-05-16T11:13:52.627Z,770
2017-05-16T11:14:52.593Z,789
2017-05-16T11:15:52.592Z,783
2017-05-16T11:16:52.627Z,784
2017-05-16T11:17:52.616Z,788
2017-05-16T11:18:52.737Z,774
2017-05-16T11:19:52.621Z,778
2017-05-16T11:20:52.630Z,775
2017-05-16T11:21:52.634Z,798
2017-05-16T11:22:52.595Z,795
2017-05-16T11:23:52.619Z,796
2017-05-16T11:24:52.625Z,846
2017-05-16T11:25:52.656Z,801
2017-05-16T11:26:52.740Z,757
2017-05-16T11:27:52.673Z,742
2017-05-16T11:28:52.599Z,734
2017-05-16T11:29:52.602Z,747
2017-05-16T11:30:52.602Z,724
2017-05-16T11:31:52.601Z,687
2017-05-16T11:32:52.669Z,660
2017-05-16T11:33:52.609Z,648
2017-05-16T11:34:52.605Z,646
2017-05-16T11:35:52.603Z,649
2017-05-16T11:36:52.613Z,639
2017-05-16T11:37:52.609Z,642
2017-05-16T11:38:52.611Z,649
2017-05-16T11:39:52.604Z,610
2017-05-16T11:40:52.621Z,602
2017-05-16T11:41:52.627Z,576
2017-05-16T11:42:52.605Z,566
2017-05-16T11:43:52.620Z,561
2017-05-16T11:44:52.633Z,554
2017-05-16T11:45:52.634Z,545
2017-05-16T11:46:52.632Z,540
2017-05-16T11:47:52.663Z,532
2017-05-16T11:48:52.666Z,528
2017-05-16T11:49:52.631Z,528
2017-05-16T11:50:52.628Z,531
2017-05-16T11:51:52.632Z,540
2017-05-16T11:52:52.595Z,557
2017-05-16T11:53:52.630Z,591
2017-05-16T11:54:52.632Z,634
2017-05-16T11:55:52.630Z,665
2017-05-16T11:56:52.626Z,692
2017-05-16T11:57:52.656Z,699
2017-05-16T11:58:52.635Z,732
2017-05-16T11:59:52.540Z,777
2017-05-16T12:00:52.594Z,771
2017-05-16T12:01:52.618Z,749
2017-05-16T12:02:52.532Z,743
2017-05-16T12:03:52.545Z,717
2017-05-16T12:04:52.602Z,755
2017-05-16T12:05:52.579Z,750
2017-05-16T12:06:52.531Z,708
2017-05-16T12:07:52.590Z,703
2017-05-16T12:08:52.593Z,718
2017-05-16T12:09:52.641Z,732
2017-05-16T12:10:52.644Z,713
2017-05-16T12:11:52.645Z,711
2017-05-16T12:12:52.637Z,701
2017-05-16T12:13:52.643Z,709
2017-05-16T12:14:52.643Z,735
2017-05-16T12:15:52.645Z,750
2017-05-16T12:16:52.647Z,787
2017-05-16T12:17:52.656Z,928
2017-05-16T12:18:52.647Z,934
2017-05-16T12:19:52.609Z,905
2017-05-16T12:20:52.647Z,1270
2017-05-16T12:21:52.646Z,1244
2017-05-16T12:22:52.650Z,1187
2017-05-16T12:23:52.650Z,992
2017-05-16T12:24:52.651Z,1014
2017-05-16T12:25:52.652Z,618
2017-05-16T12:26:52.651Z,649
2017-05-16T12:27:52.652Z,769
2017-05-16T12:28:52.652Z,639
2017-05-16T12:29:52.689Z,602
2017-05-16T12:30:52.733Z,821
2017-05-16T12:31:52.634Z,956
2017-05-16T12:32:52.638Z,860
2017-05-16T12:33:52.639Z,829
2017-05-16T12:34:52.635Z,1134
2017-05-16T12:35:52.690Z,951
2017-05-16T12:36:52.638Z,985
2017-05-16T12:37:52.634Z,1009
2017-05-16T12:38:52.640Z,970
2017-05-16T12:39:52.659Z,875
2017-05-16T12:40:52.668Z,824
2017-05-16T12:41:52.678Z,953
2017-05-16T12:42:52.826Z,765
2017-05-16T12:43:52.636Z,848
2017-05-16T12:44:52.674Z,915
2017-05-16T12:45:52.665Z,814
2017-05-16T12:46:52.675Z,839
2017-05-16T12:47:52.681Z,836
2017-05-16T12:48:52.686Z,887
2017-05-16T12:49:52.643Z,728
2017-05-16T12:50:52.676Z,551
2017-05-16T12:51:52.670Z,669
2017-05-16T12:52:52.676Z,901
2017-05-16T12:53:52.678Z,929
2017-05-16T12:54:52.684Z,763
2017-05-16T12:55:52.645Z,676
2017-05-16T12:56:52.673Z,804
2017-05-16T12:57:52.783Z,975
2017-05-16T12:58:52.675Z,1071
2017-05-16T12:59:52.702Z,833
2017-05-16T13:00:52.666Z,782
2017-05-16T13:01:52.720Z,499
2017-05-16T13:02:52.681Z,497
2017-05-16T13:03:52.674Z,502
2017-05-16T13:04:52.653Z,536
2017-05-16T13:05:52.684Z,453
2017-05-16T13:06:52.673Z,435
2017-05-16T13:07:52.683Z,423
2017-05-16T13:08:52.716Z,418
2017-05-16T13:09:52.724Z,409
2017-05-16T13:10:52.684Z,407
2017-05-16T13:11:52.669Z,411
2017-05-16T13:12:52.652Z,404
2017-05-16T13:13:52.679Z,402
2017-05-16T13:14:52.689Z,392
2017-05-16T13:15:52.674Z,379
2017-05-16T13:16:52.693Z,366
2017-05-16T13:17:52.684Z,349
2017-05-16T13:18:52.685Z,336
2017-05-16T13:19:52.692Z,323
2017-05-16T13:20:52.696Z,311
2017-05-16T13:21:52.687Z,300
2017-05-16T13:22:52.694Z,291
2017-05-16T13:23:52.677Z,280
2017-05-16T13:24:52.700Z,268
2017-05-16T13:25:52.713Z,257
2017-05-16T13:26:52.694Z,245
2017-05-16T13:27:52.803Z,236
2017-05-16T13:28:52.699Z,227
2017-05-16T13:29:52.689Z,224
2017-05-16T13:30:52.686Z,222
2017-05-16T13:31:52.683Z,221
2017-05-16T13:32:52.683Z,218
2017-05-16T13:33:52.687Z,220
2017-05-16T13:34:52.688Z,218
2017-05-16T13:35:52.684Z,221
2017-05-16T13:36:52.688Z,222
2017-05-16T13:37:52.664Z,226
2017-05-16T13:38:52.690Z,223
2017-05-16T13:39:52.693Z,231
2017-05-16T13:40:52.671Z,231
2017-05-16T13:41:52.666Z,239
2017-05-16T13:42:52.674Z,243
2017-05-16T13:43:52.673Z,248
2017-05-16T13:44:52.671Z,255
2017-05-16T13:45:52.670Z,267
2017-05-16T13:46:52.670Z,277
2017-05-16T13:47:52.670Z,289
2017-05-16T13:48:52.673Z,301
2017-05-16T13:49:52.678Z,310
2017-05-16T13:50:52.692Z,317
2017-05-16T13:51:52.696Z,319
2017-05-16T13:52:52.716Z,324
2017-05-16T13:53:52.697Z,328
2017-05-16T13:54:52.703Z,333
2017-05-16T13:55:52.697Z,333
2017-05-16T13:56:52.698Z,327
2017-05-16T13:57:52.700Z,322
2017-05-16T13:58:52.697Z,319
2017-05-16T13:59:52.696Z,320
2017-05-16T14:00:52.732Z,319
2017-05-16T14:01:52.714Z,318
2017-05-16T14:02:52.714Z,316
2017-05-16T14:03:52.693Z,314
2017-05-16T14:04:52.714Z,316
2017-05-16T14:05:52.710Z,317
2017-05-16T14:06:52.708Z,316
2017-05-16T14:07:52.699Z,314
2017-05-16T14:08:52.737Z,312
2017-05-16T14:09:52.755Z,312
2017-05-16T14:10:52.617Z,319
2017-05-16T14:11:52.681Z,328
2017-05-16T14:12:52.655Z,337
2017-05-16T14:13:52.650Z,343
2017-05-16T14:14:52.623Z,350
2017-05-16T14:15:52.719Z,360
2017-05-16T14:16:52.670Z,370
2017-05-16T14:17:52.724Z,374